Time;durP1;ratioP1;P1;durP2;ratioP2;P2;SDS_P1;SDS_P2;PMS_P1;PMS_P2;Temp;Humidity;BMP_temperature;BMP_pressure;BME280_temperature;BME280_humidity;BME280_pressure;Samples;Min_cycle;Max_cycle;Signal;HPM_P1;HPM_P2
2022/06/01 00:01:03;;;;;;;14.25;12.75;;;14.20;99.90;;;;;;5020058;28;20474;-84
2022/06/01 00:03:32;;;;;;;13.57;12.20;;;14.10;99.90;;;;;;5026784;28;20029;-84
2022/06/01 00:05:57;;;;;;;14.18;12.07;;;14.10;99.90;;;;;;5060264;22;20055;-82
2022/06/01 00:08:24;;;;;;;13.85;12.35;;;14.20;99.90;;;;;;5021673;28;20029;-82
2022/06/01 00:10:50;;;;;;;14.52;12.43;;;14.10;99.90;;;;;;5032471;28;20108;-82
2022/06/01 00:13:16;;;;;;;13.10;11.77;;;14.10;99.90;;;;;;5047322;28;20021;-82
2022/06/01 00:15:42;;;;;;;14.30;12.90;;;14.10;99.90;;;;;;5039072;28;20043;-82
2022/06/01 00:18:08;;;;;;;14.45;13.00;;;14.00;99.90;;;;;;5008969;28;20029;-82
2022/06/01 00:20:35;;;;;;;15.38;13.23;;;14.00;99.90;;;;;;5016016;28;20026;-82
2022/06/01 00:23:01;;;;;;;14.65;13.05;;;14.00;99.90;;;;;;5022470;28;20030;-82
2022/06/01 00:25:27;;;;;;;14.55;13.07;;;14.00;99.90;;;;;;5062157;28;20076;-82
2022/06/01 00:27:53;;;;;;;20.13;13.63;;;14.10;99.90;;;;;;5018002;28;20140;-82
2022/06/01 00:30:20;;;;;;;15.52;14.02;;;14.00;99.90;;;;;;5002306;28;20499;-82
2022/06/01 00:32:46;;;;;;;16.77;13.57;;;14.00;99.90;;;;;;5040545;28;20026;-82
2022/06/01 00:35:14;;;;;;;14.98;13.18;;;14.00;99.90;;;;;;5014500;28;20028;-82
2022/06/01 00:37:39;;;;;;;15.73;13.95;;;13.90;99.90;;;;;;5038200;28;20048;-82
2022/06/01 00:40:07;;;;;;;15.63;13.95;;;13.90;99.90;;;;;;5010284;28;20053;-83
2022/06/01 00:42:35;;;;;;;14.65;13.23;;;13.90;99.90;;;;;;5020112;28;20013;-82
2022/06/01 00:45:01;;;;;;;15.00;13.50;;;13.90;99.90;;;;;;5034155;28;20013;-82
2022/06/01 00:47:28;;;;;;;16.20;14.50;;;13.90;99.90;;;;;;5005292;28;20083;-82
2022/06/01 00:50:09;;;;;;;14.68;13.25;;;13.90;99.90;;;;;;5046283;28;20039;-82
2022/06/01 00:52:40;;;;;;;16.40;13.02;;;13.90;99.90;;;;;;5051219;28;20025;-84
2022/06/01 00:55:06;;;;;;;15.60;13.63;;;13.90;99.90;;;;;;5053934;28;20473;-84
2022/06/01 00:57:33;;;;;;;15.38;13.80;;;13.90;99.90;;;;;;5053751;28;20031;-84
2022/06/01 01:00:01;;;;;;;16.15;14.38;;;13.90;99.90;;;;;;5053874;28;20017;-83
2022/06/01 01:02:30;;;;;;;15.43;13.93;;;13.90;99.90;;;;;;5040652;28;20064;-83
2022/06/01 01:04:56;;;;;;;15.60;13.98;;;13.90;99.90;;;;;;5040104;28;20033;-84
2022/06/01 01:07:26;;;;;;;15.25;13.68;;;13.90;99.90;;;;;;5044411;28;20506;-83
2022/06/01 01:09:52;;;;;;;15.13;13.63;;;13.90;99.90;;;;;;5035459;28;20016;-84
2022/06/01 01:12:18;;;;;;;15.80;14.30;;;13.90;99.90;;;;;;5028017;28;20033;-84
2022/06/01 01:14:45;;;;;;;15.77;14.27;;;13.80;99.90;;;;;;5021560;28;20036;-83
2022/06/01 01:17:11;;;;;;;16.13;14.45;;;13.80;99.90;;;;;;5049757;28;20023;-83
2022/06/01 01:19:42;;;;;;;17.00;15.38;;;13.80;99.90;;;;;;5054767;28;20033;-84
2022/06/01 01:22:44;;;;;;;16.95;15.25;;;13.80;99.90;;;;;;5054697;28;20023;-84
2022/06/01 01:25:18;;;;;;;17.70;15.73;;;13.80;99.90;;;;;;5050670;28;20078;-84
2022/06/01 01:28:18;;;;;;;17.70;15.90;;;13.80;99.90;;;;;;5064948;28;20055;-84
2022/06/01 01:31:02;;;;;;;17.70;15.90;;;13.70;99.90;;;;;;5030506;28;20524;-84
2022/06/01 01:33:30;;;;;;;17.85;15.95;;;13.70;99.90;;;;;;5040972;28;20051;-84
2022/06/01 01:36:04;;;;;;;16.15;14.45;;;13.70;99.90;;;;;;5036666;28;20065;-84
2022/06/01 01:38:40;;;;;;;13.75;12.00;;;13.70;99.90;;;;;;5023341;28;20332;-83
2022/06/01 01:41:19;;;;;;;12.80;11.50;;;13.70;99.90;;;;;;5053495;28;20127;-84
2022/06/01 01:44:16;;;;;;;13.30;11.90;;;13.60;99.90;;;;;;5042603;28;20017;-83
2022/06/01 01:46:47;;;;;;;12.25;10.95;;;13.60;99.90;;;;;;4993804;28;20036;-84
2022/06/01 01:49:32;;;;;;;13.48;11.43;;;13.60;99.90;;;;;;5016477;28;20017;-84
2022/06/01 01:52:02;;;;;;;13.02;11.65;;;13.60;99.90;;;;;;5031511;28;20382;-84
2022/06/01 01:54:49;;;;;;;12.23;10.77;;;13.60;99.90;;;;;;5041981;28;20013;-83
2022/06/01 01:57:29;;;;;;;12.18;10.90;;;13.60;99.90;;;;;;5052408;28;20016;-84
2022/06/01 02:00:04;;;;;;;11.18;9.98;;;13.60;99.90;;;;;;5056473;28;20086;-83
2022/06/01 02:02:51;;;;;;;10.30;9.20;;;13.60;99.90;;;;;;5047824;28;20028;-84
2022/06/01 02:08:25;;;;;;;10.02;8.93;;;13.60;99.90;;;;;;5046484;28;20148;-84
2022/06/01 02:13:39;;;;;;;8.73;7.82;;;13.60;99.90;;;;;;5047110;28;20067;-84
2022/06/01 02:16:06;;;;;;;10.60;8.02;;;13.60;99.90;;;;;;5052333;28;20357;-84
2022/06/01 02:18:44;;;;;;;9.82;8.00;;;13.60;99.90;;;;;;5029781;28;20483;-84
2022/06/01 02:21:17;;;;;;;10.18;8.50;;;13.50;99.90;;;;;;5030914;28;20471;-84
2022/06/01 02:23:43;;;;;;;10.38;7.78;;;13.50;99.90;;;;;;5060910;28;20032;-84
2022/06/01 02:26:10;;;;;;;9.05;7.47;;;13.50;99.90;;;;;;5038518;28;20021;-84
2022/06/01 02:28:40;;;;;;;8.73;7.63;;;13.40;99.90;;;;;;5053696;28;20028;-84
2022/06/01 02:31:07;;;;;;;9.63;7.60;;;13.40;99.90;;;;;;5053663;28;20355;-84
2022/06/01 02:33:34;;;;;;;9.00;8.05;;;13.40;99.90;;;;;;5035886;28;20125;-85
2022/06/01 02:36:04;;;;;;;13.25;8.82;;;13.40;99.90;;;;;;5052357;28;20463;-84
2022/06/01 02:38:40;;;;;;;10.23;7.85;;;13.40;99.90;;;;;;5052116;28;20028;-84
2022/06/01 02:41:06;;;;;;;9.55;8.55;;;13.40;99.90;;;;;;5049772;28;20025;-84
2022/06/01 02:43:49;;;;;;;9.38;8.15;;;13.30;99.90;;;;;;5052112;28;20124;-84
2022/06/01 02:46:14;;;;;;;10.43;8.80;;;13.30;99.90;;;;;;5052595;28;20021;-85
2022/06/01 02:48:43;;;;;;;10.60;8.73;;;13.30;99.90;;;;;;5039005;28;20032;-86
2022/06/01 02:51:09;;;;;;;11.90;8.95;;;13.30;99.90;;;;;;5052643;28;20043;-89
2022/06/01 02:53:37;;;;;;;12.73;9.98;;;13.30;99.90;;;;;;5014528;28;20026;-88
2022/06/01 02:56:04;;;;;;;11.38;9.50;;;13.30;99.90;;;;;;5030746;28;20056;-88
2022/06/01 02:58:29;;;;;;;15.25;10.05;;;13.30;99.90;;;;;;5023736;28;20021;-87
2022/06/01 03:00:58;;;;;;;12.63;10.00;;;13.20;99.90;;;;;;5023358;28;20033;-87
2022/06/01 03:03:24;;;;;;;11.65;10.45;;;13.20;99.90;;;;;;5056164;28;20024;-87
2022/06/01 03:05:50;;;;;;;15.27;10.80;;;13.20;99.90;;;;;;5028156;28;20046;-87
2022/06/01 03:08:15;;;;;;;13.95;10.68;;;13.20;99.90;;;;;;5028123;28;20025;-87
2022/06/01 03:10:41;;;;;;;11.77;10.43;;;13.20;99.90;;;;;;5039685;28;20028;-87
2022/06/01 03:13:07;;;;;;;13.50;11.00;;;13.20;99.90;;;;;;5056192;28;20025;-86
2022/06/01 03:15:33;;;;;;;14.20;11.40;;;13.20;99.90;;;;;;5039306;28;20029;-86
2022/06/01 03:17:59;;;;;;;12.85;11.55;;;13.20;99.90;;;;;;5056001;28;20033;-87
2022/06/01 03:20:27;;;;;;;12.13;10.82;;;13.20;99.90;;;;;;5039288;28;20118;-86
2022/06/01 03:22:53;;;;;;;13.95;11.07;;;13.20;99.90;;;;;;5057103;28;20104;-86
2022/06/01 03:25:22;;;;;;;11.80;10.50;;;13.20;99.90;;;;;;5043789;28;20026;-86
2022/06/01 03:27:49;;;;;;;14.63;10.38;;;13.20;99.90;;;;;;5039855;28;20047;-86
2022/06/01 03:30:18;;;;;;;12.60;11.18;;;13.20;99.90;;;;;;5056964;28;20021;-86
2022/06/01 03:32:45;;;;;;;12.23;10.13;;;13.10;99.90;;;;;;5046473;28;20017;-86
2022/06/01 03:35:13;;;;;;;12.55;10.50;;;13.10;99.90;;;;;;5010151;28;20025;-86
2022/06/01 03:37:39;;;;;;;12.77;10.65;;;13.10;99.90;;;;;;5046747;28;20467;-86
2022/06/01 03:40:05;;;;;;;13.20;10.00;;;13.10;99.90;;;;;;5033500;28;20029;-86
2022/06/01 03:42:32;;;;;;;11.68;10.15;;;13.00;99.90;;;;;;5054767;28;20432;-86
2022/06/01 03:47:42;;;;;;;11.48;10.23;;;13.00;99.90;;;;;;5051923;28;20044;-86
2022/06/01 03:50:09;;;;;;;11.13;9.88;;;12.90;99.90;;;;;;5055397;28;20021;-86
2022/06/01 03:52:35;;;;;;;11.98;10.77;;;12.90;99.90;;;;;;5055170;28;20039;-86
2022/06/01 03:55:00;;;;;;;11.98;10.68;;;12.90;99.90;;;;;;5043578;28;20100;-86
2022/06/01 03:57:26;;;;;;;12.27;10.43;;;12.80;99.90;;;;;;5038998;28;20439;-87
2022/06/01 03:59:52;;;;;;;12.30;10.43;;;12.70;99.90;;;;;;5054990;28;20591;-86
2022/06/01 04:02:18;;;;;;;12.13;10.75;;;12.70;99.90;;;;;;5038498;28;20033;-86
2022/06/01 04:04:44;;;;;;;15.35;10.88;;;12.70;99.90;;;;;;5052588;28;20060;-85
2022/06/01 04:07:09;;;;;;;11.65;9.82;;;12.70;99.90;;;;;;5017066;28;20079;-86
2022/06/01 04:09:35;;;;;;;11.23;10.02;;;12.70;99.90;;;;;;5058331;28;20033;-86
2022/06/01 04:12:01;;;;;;;12.52;11.23;;;12.70;99.90;;;;;;5062022;28;20033;-86
2022/06/01 04:14:27;;;;;;;14.50;11.60;;;12.80;99.90;;;;;;5076262;28;20029;-86
2022/06/01 04:16:52;;;;;;;16.95;12.63;;;12.80;99.90;;;;;;5044137;28;20060;-86
2022/06/01 04:19:19;;;;;;;18.45;15.88;;;12.80;99.90;;;;;;5044247;28;20474;-86
2022/06/01 04:21:49;;;;;;;18.30;16.40;;;12.80;99.90;;;;;;5057953;28;20021;-86
2022/06/01 04:24:17;;;;;;;20.25;17.58;;;12.80;99.90;;;;;;5020789;28;20022;-86
2022/06/01 04:26:43;;;;;;;21.92;19.17;;;12.80;99.90;;;;;;5040799;28;20111;-86
2022/06/01 04:29:09;;;;;;;22.95;19.77;;;12.70;99.90;;;;;;5052068;28;20124;-86
2022/06/01 04:31:36;;;;;;;24.55;20.63;;;12.70;99.90;;;;;;5053768;28;20035;-87
2022/06/01 04:34:01;;;;;;;23.05;20.60;;;12.70;99.90;;;;;;5057776;28;20036;-86
2022/06/01 04:36:27;;;;;;;23.75;19.98;;;12.70;99.90;;;;;;5041082;28;20397;-86
2022/06/01 04:38:52;;;;;;;21.92;19.65;;;12.70;99.90;;;;;;5041759;28;20036;-86
2022/06/01 04:41:18;;;;;;;23.98;21.30;;;12.70;99.90;;;;;;5032636;28;20036;-86
2022/06/01 04:43:44;;;;;;;26.25;22.88;;;12.70;99.90;;;;;;5058063;28;20476;-85
2022/06/01 04:46:09;;;;;;;26.13;23.33;;;12.70;99.90;;;;;;5037815;28;20025;-85
2022/06/01 04:48:35;;;;;;;25.92;23.13;;;12.70;99.90;;;;;;5046736;28;20150;-85
2022/06/01 04:51:01;;;;;;;25.95;22.90;;;12.70;99.90;;;;;;5024383;28;20474;-86
2022/06/01 04:53:27;;;;;;;25.38;22.40;;;12.70;99.90;;;;;;5057641;28;20041;-85
2022/06/01 04:55:53;;;;;;;26.58;23.05;;;12.60;99.90;;;;;;5040811;28;20024;-85
2022/06/01 04:58:19;;;;;;;25.33;22.40;;;12.60;99.90;;;;;;5035752;28;20039;-85
2022/06/01 05:00:45;;;;;;;26.25;21.73;;;12.60;99.90;;;;;;5026442;28;20041;-85
2022/06/01 05:03:11;;;;;;;28.17;21.95;;;12.60;99.90;;;;;;5035058;28;20048;-85
2022/06/01 05:05:39;;;;;;;26.85;21.35;;;12.60;99.90;;;;;;5053538;28;20106;-85
2022/06/01 05:08:10;;;;;;;23.40;20.90;;;12.70;99.90;;;;;;5053791;28;20059;-85
2022/06/01 05:10:35;;;;;;;26.20;22.52;;;12.70;99.90;;;;;;5051123;28;20063;-85
2022/06/01 05:13:02;;;;;;;24.23;20.65;;;12.70;99.90;;;;;;5043749;28;20424;-85
2022/06/01 05:15:27;;;;;;;22.42;20.02;;;12.80;99.90;;;;;;5047932;28;20026;-85
2022/06/01 05:17:53;;;;;;;22.90;19.38;;;12.80;99.90;;;;;;5014509;28;20026;-85
2022/06/01 05:20:19;;;;;;;23.95;20.33;;;12.80;99.90;;;;;;5016388;28;20030;-83
2022/06/01 05:22:46;;;;;;;25.77;20.02;;;12.90;99.90;;;;;;5017746;28;20488;-85
2022/06/01 05:25:12;;;;;;;22.75;20.10;;;12.90;99.90;;;;;;5012329;28;20079;-84
2022/06/01 05:27:39;;;;;;;20.48;18.27;;;12.90;99.90;;;;;;5019588;28;20497;-84
2022/06/01 05:30:06;;;;;;;19.85;17.70;;;12.90;99.90;;;;;;5023949;28;20025;-83
2022/06/01 05:32:33;;;;;;;20.95;17.23;;;12.90;99.90;;;;;;5004479;28;20091;-84
2022/06/01 05:34:58;;;;;;;22.13;18.42;;;12.90;99.90;;;;;;5014505;28;20026;-84
2022/06/01 05:37:24;;;;;;;21.60;17.70;;;12.80;99.90;;;;;;5021247;28;20041;-84
2022/06/01 05:39:51;;;;;;;20.10;18.00;;;12.80;99.90;;;;;;5019984;28;20029;-83
2022/06/01 05:42:17;;;;;;;21.45;17.85;;;12.80;99.90;;;;;;5009728;28;20033;-84
2022/06/01 05:51:27;;;;;;;18.98;15.55;;;12.90;99.90;;;;;;5028328;28;20062;-83
2022/06/01 05:53:53;;;;;;;23.90;14.68;;;12.90;99.90;;;;;;5032881;28;20128;-84
2022/06/01 05:56:18;;;;;;;19.75;15.38;;;12.90;99.90;;;;;;5012871;28;20160;-84
2022/06/01 05:58:45;;;;;;;18.67;13.70;;;12.90;99.90;;;;;;5003685;28;20026;-83
2022/06/01 06:01:11;;;;;;;18.65;15.02;;;12.90;99.90;;;;;;5013017;28;20483;-84
2022/06/01 06:03:37;;;;;;;17.80;14.60;;;12.90;99.90;;;;;;5022904;28;20036;-84
2022/06/01 06:06:12;;;;;;;18.58;14.70;;;13.00;99.90;;;;;;5027271;28;20053;-84
2022/06/01 06:08:42;;;;;;;18.55;14.30;;;13.00;99.90;;;;;;5025601;28;20032;-84
2022/06/01 06:11:08;;;;;;;19.37;14.73;;;13.10;99.90;;;;;;5018824;28;20025;-84
2022/06/01 06:13:34;;;;;;;16.90;14.77;;;13.10;99.90;;;;;;5012817;28;20407;-84
2022/06/01 06:16:02;;;;;;;21.92;14.15;;;13.10;99.90;;;;;;5007792;28;20026;-84
2022/06/01 06:18:27;;;;;;;17.08;14.00;;;13.10;99.90;;;;;;5029285;28;20022;-84
2022/06/01 06:20:53;;;;;;;16.63;13.93;;;13.20;99.90;;;;;;5040508;28;20439;-84
2022/06/01 06:23:19;;;;;;;16.45;13.25;;;13.20;99.90;;;;;;5010909;28;20470;-85
2022/06/01 06:25:44;;;;;;;16.25;13.68;;;13.30;99.90;;;;;;5028334;28;20030;-84
2022/06/01 06:28:11;;;;;;;18.77;14.55;;;13.30;99.90;;;;;;5013710;28;20405;-85
2022/06/01 06:30:38;;;;;;;18.15;15.32;;;13.30;99.90;;;;;;5023755;28;20021;-84
2022/06/01 06:33:05;;;;;;;18.88;15.43;;;13.40;99.90;;;;;;5050591;28;20375;-84
2022/06/01 06:35:30;;;;;;;16.55;13.88;;;13.40;99.90;;;;;;5035748;28;20108;-84
2022/06/01 06:37:56;;;;;;;17.35;15.27;;;13.50;99.90;;;;;;5014467;28;20478;-83
2022/06/01 06:40:22;;;;;;;16.73;14.05;;;13.60;99.90;;;;;;5025249;28;20034;-84
2022/06/01 06:42:48;;;;;;;16.13;14.43;;;13.60;99.90;;;;;;5012609;28;20054;-84
2022/06/01 06:45:13;;;;;;;19.73;14.70;;;13.70;99.90;;;;;;5031358;28;20099;-84
2022/06/01 06:47:41;;;;;;;16.23;14.50;;;13.70;99.90;;;;;;5032285;28;20387;-84
2022/06/01 06:50:09;;;;;;;17.23;14.55;;;13.80;99.90;;;;;;5021410;28;20028;-84
2022/06/01 06:52:35;;;;;;;15.25;13.00;;;13.80;99.90;;;;;;5025813;28;20053;-84
2022/06/01 06:55:01;;;;;;;15.90;12.48;;;13.90;99.90;;;;;;5017810;28;20455;-84
2022/06/01 06:57:27;;;;;;;15.32;12.25;;;13.90;99.90;;;;;;5032080;28;20021;-84
2022/06/01 06:59:53;;;;;;;17.25;11.90;;;14.00;99.90;;;;;;5019299;28;20049;-83
2022/06/01 07:02:19;;;;;;;14.38;11.40;;;14.10;99.90;;;;;;5018662;28;20017;-84
2022/06/01 07:04:46;;;;;;;12.55;10.38;;;14.10;99.90;;;;;;5008327;28;20049;-83
2022/06/01 07:07:13;;;;;;;13.10;10.30;;;14.20;99.90;;;;;;5045607;28;20399;-83
2022/06/01 07:09:39;;;;;;;12.45;9.57;;;14.30;99.90;;;;;;5030151;28;20060;-83
2022/06/01 07:12:05;;;;;;;12.95;9.88;;;14.40;99.90;;;;;;5014932;28;20046;-83
2022/06/01 07:14:31;;;;;;;12.48;10.50;;;14.40;99.90;;;;;;5014994;28;20550;-83
2022/06/01 07:17:01;;;;;;;13.68;9.48;;;14.50;99.90;;;;;;5021192;28;20121;-83
2022/06/01 07:19:27;;;;;;;9.88;8.80;;;14.50;99.90;;;;;;5015713;28;20031;-82
2022/06/01 07:21:53;;;;;;;13.10;9.45;;;14.60;99.90;;;;;;5015340;28;20034;-84
2022/06/01 07:24:20;;;;;;;12.55;8.40;;;14.70;99.90;;;;;;5017843;28;20030;-83
2022/06/01 07:26:46;;;;;;;12.40;8.38;;;14.70;99.90;;;;;;5011123;28;20018;-83
2022/06/01 07:29:14;;;;;;;10.80;7.93;;;14.80;99.90;;;;;;5023675;28;20014;-83
2022/06/01 07:31:41;;;;;;;9.80;7.72;;;14.80;99.90;;;;;;5006235;28;20079;-83
2022/06/01 07:34:07;;;;;;;12.18;7.60;;;14.90;99.90;;;;;;5012390;28;20033;-83
2022/06/01 07:36:34;;;;;;;12.32;7.47;;;15.00;99.90;;;;;;5015052;28;20037;-83
2022/06/01 07:44:44;;;;;;;7.78;6.35;;;15.30;99.90;;;;;;5025169;28;20129;-83
2022/06/01 07:47:11;;;;;;;9.88;6.50;;;15.40;99.90;;;;;;5030694;28;20029;-85
2022/06/01 07:49:37;;;;;;;8.43;6.20;;;15.40;99.90;;;;;;5029317;28;20017;-83
2022/06/01 07:52:06;;;;;;;8.48;6.15;;;15.50;99.90;;;;;;5015564;28;20083;-83
2022/06/01 07:54:34;;;;;;;6.82;5.65;;;15.60;99.90;;;;;;5017182;28;20064;-83
2022/06/01 07:57:00;;;;;;;7.15;5.80;;;15.70;99.90;;;;;;5015696;28;20040;-83
2022/06/01 07:59:26;;;;;;;6.90;4.97;;;15.80;99.90;;;;;;5013307;28;20472;-83
2022/06/01 08:01:51;;;;;;;9.07;5.18;;;15.90;99.90;;;;;;5017008;28;20157;-83
2022/06/01 08:04:17;;;;;;;5.78;4.57;;;15.90;99.90;;;;;;5002267;28;20039;-83
2022/06/01 08:06:43;;;;;;;6.88;5.80;;;15.90;99.90;;;;;;5012634;28;20481;-83
2022/06/01 08:09:08;;;;;;;8.23;5.25;;;16.00;99.90;;;;;;5015649;28;20049;-83
2022/06/01 08:14:19;;;;;;;8.68;5.13;;;16.10;99.90;;;;;;5018993;28;20414;-84
2022/06/01 08:16:46;;;;;;;6.43;5.20;;;16.20;99.90;;;;;;5016991;28;20026;-84
2022/06/01 08:19:13;;;;;;;6.85;4.80;;;16.20;99.90;;;;;;5012628;28;20036;-83
2022/06/01 08:21:39;;;;;;;5.53;4.40;;;16.30;99.90;;;;;;5015351;28;20033;-84
2022/06/01 08:24:06;;;;;;;6.50;4.85;;;16.30;99.90;;;;;;5017400;28;20022;-84
2022/06/01 08:26:33;;;;;;;6.40;4.05;;;16.40;99.90;;;;;;5028464;28;20017;-85
2022/06/01 08:28:59;;;;;;;6.75;3.78;;;16.50;99.90;;;;;;5017060;28;20028;-83
2022/06/01 08:31:27;;;;;;;7.32;4.10;;;16.50;99.90;;;;;;5014477;28;20117;-84
2022/06/01 08:33:54;;;;;;;7.95;4.25;;;16.60;99.90;;;;;;5017635;28;20057;-83
2022/06/01 08:36:20;;;;;;;5.88;4.15;;;16.70;99.90;;;;;;5017200;28;20084;-84
2022/06/01 08:38:46;;;;;;;7.65;3.88;;;16.70;99.90;;;;;;5017315;28;20025;-85
2022/06/01 08:41:14;;;;;;;6.03;4.03;;;16.80;99.90;;;;;;5032498;28;20147;-84
2022/06/01 08:43:49;;;;;;;7.82;3.47;;;16.80;99.90;;;;;;5021799;28;20550;-84
2022/06/01 08:46:15;;;;;;;6.05;3.53;;;16.90;99.90;;;;;;5034055;28;20057;-84
2022/06/01 08:48:43;;;;;;;6.38;3.35;;;17.00;99.90;;;;;;5017615;28;20060;-84
2022/06/01 08:51:09;;;;;;;12.02;4.75;;;17.10;99.90;;;;;;5016079;28;20030;-85
2022/06/01 08:53:35;;;;;;;7.22;4.03;;;17.20;99.90;;;;;;5017198;28;20029;-84
2022/06/01 08:56:11;;;;;;;4.70;3.30;;;17.20;99.90;;;;;;5024168;28;20491;-85
2022/06/01 08:59:06;;;;;;;6.10;3.20;;;17.20;99.70;;;;;;5032625;28;20490;-85
2022/06/01 09:01:44;;;;;;;5.72;3.05;;;17.20;99.90;;;;;;5035031;28;20490;-84
2022/06/01 09:04:29;;;;;;;4.22;2.97;;;17.20;99.60;;;;;;5033730;28;20048;-84
2022/06/01 09:07:20;;;;;;;4.22;2.67;;;17.30;99.40;;;;;;5045905;28;20406;-84
2022/06/01 09:10:08;;;;;;;5.05;3.00;;;17.30;97.40;;;;;;5047138;28;20027;-84
2022/06/01 09:12:35;;;;;;;6.80;3.15;;;17.30;96.70;;;;;;5069640;28;20021;-84
2022/06/01 09:15:21;;;;;;;3.78;2.55;;;17.40;96.10;;;;;;5037143;28;20475;-84
2022/06/01 09:17:48;;;;;;;5.03;2.42;;;17.40;95.50;;;;;;5037171;28;20043;-84
2022/06/01 09:23:12;;;;;;;4.38;2.95;;;17.60;95.30;;;;;;5055046;28;20091;-84
2022/06/01 09:25:38;;;;;;;7.45;3.83;;;17.70;95.80;;;;;;5050579;28;20111;-83
2022/06/01 09:28:20;;;;;;;4.47;3.28;;;17.70;94.80;;;;;;5036825;28;20116;-84
2022/06/01 09:30:56;;;;;;;5.57;3.35;;;17.70;93.90;;;;;;5037458;28;20024;-84
2022/06/01 09:33:34;;;;;;;6.25;3.72;;;17.70;94.10;;;;;;5066255;28;20017;-83
2022/06/01 09:36:08;;;;;;;6.68;3.85;;;17.80;94.10;;;;;;5036493;28;20065;-84
2022/06/01 09:38:48;;;;;;;6.85;4.20;;;17.80;93.90;;;;;;5036516;28;20049;-84
2022/06/01 09:41:21;;;;;;;5.93;4.32;;;17.80;93.70;;;;;;5036322;28;20021;-84
2022/06/01 09:44:22;;;;;;;6.10;4.10;;;17.80;93.30;;;;;;5046495;28;20035;-84
2022/06/01 09:46:47;;;;;;;5.97;3.70;;;17.70;92.80;;;;;;5028954;28;20070;-84
2022/06/01 09:49:25;;;;;;;10.35;4.53;;;17.70;92.50;;;;;;5043541;28;20068;-84
2022/06/01 09:52:02;;;;;;;5.75;4.70;;;17.70;92.50;;;;;;5042569;28;20021;-84
2022/06/01 09:54:33;;;;;;;8.10;4.75;;;17.70;92.90;;;;;;5074095;28;20531;-84
2022/06/01 09:57:17;;;;;;;13.05;6.25;;;17.70;93.50;;;;;;5029739;28;20032;-86
2022/06/01 10:08:11;;;;;;;5.38;4.20;;;17.70;96.80;;;;;;5054001;28;20048;-87
2022/06/01 10:10:37;;;;;;;;;;;17.60;97.50;;;;;;5036494;28;20043;-87
2022/06/01 10:13:06;;;;;;;9.65;4.75;;;17.60;98.70;;;;;;5062864;28;19970;-86
2022/06/01 10:15:32;;;;;;;6.78;5.20;;;17.60;98.80;;;;;;5044214;28;20021;-86
2022/06/01 10:18:06;;;;;;;6.75;4.97;;;17.70;99.60;;;;;;5035767;28;20489;-86
2022/06/01 10:20:38;;;;;;;7.13;4.70;;;17.70;99.90;;;;;;5049585;28;20028;-85
2022/06/01 10:23:09;;;;;;;4.57;3.72;;;17.80;99.90;;;;;;5053631;28;20017;-86
2022/06/01 10:25:50;;;;;;;6.00;4.63;;;17.80;99.90;;;;;;5035947;28;20029;-85
2022/06/01 10:28:18;;;;;;;;;;;17.90;99.90;;;;;;5028009;28;20105;-85
2022/06/01 10:30:58;;;;;;;5.40;4.60;;;17.90;99.90;;;;;;5016381;28;19916;-85
2022/06/01 10:33:29;;;;;;;7.03;5.88;;;17.90;99.90;;;;;;5036390;28;20462;-84
2022/06/01 10:36:03;;;;;;;7.10;5.50;;;17.90;99.90;;;;;;5053801;28;20394;-84
2022/06/01 10:38:48;;;;;;;6.43;4.75;;;18.00;99.90;;;;;;5044052;28;20020;-84
2022/06/01 10:41:30;;;;;;;6.10;4.50;;;17.90;99.90;;;;;;5038226;28;20021;-85
2022/06/01 10:44:21;;;;;;;6.15;4.30;;;17.90;99.90;;;;;;5024447;28;20021;-85
2022/06/01 10:47:05;;;;;;;5.38;4.30;;;17.80;99.90;;;;;;5022485;28;20021;-86
2022/06/01 10:49:48;;;;;;;6.85;4.50;;;17.70;98.20;;;;;;5035303;28;20075;-85
2022/06/01 10:52:24;;;;;;;5.00;3.70;;;17.50;98.20;;;;;;5035391;28;20475;-85
2022/06/01 10:55:13;;;;;;;4.22;2.65;;;17.30;97.10;;;;;;5038321;28;20016;-86
2022/06/01 10:57:42;;;;;;;4.13;3.03;;;17.10;96.60;;;;;;5047717;28;20093;-85
2022/06/01 11:00:11;;;;;;;4.22;2.95;;;17.00;96.80;;;;;;5042918;28;20105;-85
2022/06/01 11:02:55;;;;;;;4.25;2.35;;;16.70;96.40;;;;;;5053095;28;20032;-86
2022/06/01 11:05:59;;;;;;;4.07;2.70;;;16.60;95.90;;;;;;5035313;28;20028;-85
2022/06/01 11:09:00;;;;;;;4.10;3.15;;;16.50;96.20;;;;;;5033103;28;20033;-86
2022/06/01 11:11:47;;;;;;;4.78;2.60;;;16.30;96.50;;;;;;5015543;28;20060;-85
2022/06/01 11:14:50;;;;;;;3.92;1.60;;;16.20;96.50;;;;;;5029519;28;20037;-85
2022/06/01 11:17:28;;;;;;;3.38;1.55;;;16.00;95.30;;;;;;5050813;28;20028;-85
2022/06/01 11:20:15;;;;;;;5.53;2.47;;;15.90;95.80;;;;;;5033852;28;20033;-86
2022/06/01 11:23:18;;;;;;;4.18;2.70;;;15.80;96.60;;;;;;5040049;28;20169;-85
2022/06/01 11:26:16;;;;;;;6.38;2.78;;;15.80;96.90;;;;;;5023902;28;20034;-86
2022/06/01 11:28:47;;;;;;;6.10;3.50;;;15.80;97.40;;;;;;4999900;28;20063;-86
2022/06/01 11:31:19;;;;;;;4.88;3.60;;;15.90;98.40;;;;;;5023499;28;20298;-89
2022/06/01 11:34:05;;;;;;;5.78;3.60;;;15.90;99.10;;;;;;5022029;28;20116;-88
2022/06/01 11:36:35;;;;;;;6.93;4.07;;;15.90;99.90;;;;;;5018985;28;20025;-87
2022/06/01 11:39:20;;;;;;;6.25;4.57;;;15.90;99.90;;;;;;5037950;28;20025;-87
2022/06/01 11:42:31;;;;;;;7.38;5.22;;;15.80;99.90;;;;;;5031403;28;20026;-87
2022/06/01 11:45:13;;;;;;;6.93;5.35;;;15.80;99.90;;;;;;4975757;28;20019;-87
2022/06/01 11:48:09;;;;;;;9.68;5.40;;;15.90;99.90;;;;;;4972562;28;20027;-87
2022/06/01 11:50:53;;;;;;;8.35;5.10;;;15.90;99.90;;;;;;5015712;28;20116;-86
2022/06/01 11:53:36;;;;;;;8.27;4.90;;;15.90;99.90;;;;;;5031056;28;20021;-86
2022/06/01 11:56:14;;;;;;;9.40;4.97;;;15.90;99.90;;;;;;5038477;28;20031;-86
2022/06/01 11:58:55;;;;;;;8.77;5.03;;;15.90;99.90;;;;;;5035777;28;20029;-86
2022/06/01 12:01:45;;;;;;;7.75;5.20;;;15.90;99.90;;;;;;5040086;28;20016;-86
2022/06/01 12:04:16;;;;;;;7.10;5.27;;;15.90;99.90;;;;;;4984627;28;20029;-86
2022/06/01 12:06:57;;;;;;;9.20;5.65;;;15.90;99.90;;;;;;5054847;28;20051;-85
2022/06/01 12:09:29;;;;;;;7.05;5.15;;;15.90;99.90;;;;;;5036274;28;20037;-86
2022/06/01 12:11:55;;;;;;;9.05;5.63;;;15.90;99.90;;;;;;5018496;28;20025;-86
2022/06/01 12:14:32;;;;;;;8.88;5.80;;;16.00;99.90;;;;;;5037952;28;20021;-85
2022/06/01 12:17:17;;;;;;;7.78;5.82;;;16.00;99.90;;;;;;5042872;28;20121;-86
2022/06/01 12:19:45;;;;;;;7.07;5.20;;;16.10;99.90;;;;;;5033603;22;20038;-84
2022/06/01 12:28:31;;;;;;;7.97;5.18;;;16.40;99.90;;;;;;5020612;28;20060;-84
2022/06/01 12:31:14;;;;;;;5.93;3.80;;;16.50;99.90;;;;;;4939450;29;20125;-84
2022/06/01 12:34:01;;;;;;;2.28;1.73;;;16.60;99.90;;;;;;4945262;29;20027;-84
2022/06/01 12:36:36;;;;;;;3.05;1.30;;;16.80;99.90;;;;;;4988506;28;20038;-84
2022/06/01 12:39:26;;;;;;;2.25;1.00;;;16.90;99.90;;;;;;5014645;28;20116;-84
2022/06/01 12:41:59;;;;;;;2.35;1.63;;;16.90;99.60;;;;;;4983089;28;20037;-84
2022/06/01 12:44:25;;;;;;;1.63;1.00;;;16.90;99.00;;;;;;5035493;28;20033;-84
2022/06/01 12:46:51;;;;;;;2.83;1.10;;;17.00;97.90;;;;;;4998243;28;20029;-84
2022/06/01 12:49:33;;;;;;;1.08;0.80;;;17.00;97.70;;;;;;5011028;28;20041;-84
2022/06/01 12:52:05;;;;;;;2.05;1.00;;;17.10;97.20;;;;;;5014467;28;20471;-84
2022/06/01 12:54:40;;;;;;;1.63;0.80;;;17.20;97.20;;;;;;5011713;28;20029;-84
2022/06/01 12:57:11;;;;;;;0.90;0.60;;;17.30;97.10;;;;;;4997639;28;20022;-85
2022/06/01 12:59:39;;;;;;;0.55;0.43;;;17.40;96.90;;;;;;5001511;28;20026;-85
2022/06/01 13:02:11;;;;;;;1.40;1.02;;;17.40;95.00;;;;;;4997763;28;20050;-85
2022/06/01 13:04:38;;;;;;;1.00;0.75;;;17.50;93.10;;;;;;5017323;28;20068;-85
2022/06/01 13:07:06;;;;;;;3.42;1.02;;;17.60;92.90;;;;;;5017294;28;20030;-84
2022/06/01 13:09:33;;;;;;;1.98;1.10;;;17.60;92.50;;;;;;5017263;28;20471;-84
2022/06/01 13:12:15;;;;;;;1.70;1.25;;;17.70;92.10;;;;;;4986997;28;20121;-85
2022/06/01 13:14:41;;;;;;;1.48;0.85;;;17.70;92.50;;;;;;5005828;28;20021;-84
2022/06/01 13:17:17;;;;;;;1.85;0.80;;;17.70;91.90;;;;;;5035098;28;20026;-85
2022/06/01 13:19:43;;;;;;;2.13;0.82;;;17.70;92.30;;;;;;5013745;28;20028;-85
2022/06/01 13:22:24;;;;;;;1.77;0.90;;;17.80;92.20;;;;;;5016879;28;20025;-84
2022/06/01 13:25:14;;;;;;;1.25;0.80;;;17.90;92.50;;;;;;5013805;28;20030;-85
2022/06/01 13:27:40;;;;;;;2.08;0.90;;;17.90;90.90;;;;;;5013835;28;20021;-85
2022/06/01 13:30:07;;;;;;;1.10;0.63;;;17.90;89.80;;;;;;4997312;28;20033;-84
2022/06/01 13:32:41;;;;;;;1.33;0.80;;;17.90;88.50;;;;;;5002987;28;20084;-84
2022/06/01 13:35:25;;;;;;;1.15;0.80;;;17.90;87.40;;;;;;5034843;28;20470;-84
2022/06/01 13:37:54;;;;;;;2.53;1.00;;;18.00;89.40;;;;;;5016494;28;20426;-85
2022/06/01 13:40:24;;;;;;;1.58;0.90;;;18.10;90.00;;;;;;4990150;28;20057;-84